createdAt,value
2022-12-29T00:00:24.311Z,511.00
2022-12-29T00:00:54.329Z,512.00
2022-12-29T00:01:24.340Z,506.00
2022-12-29T00:01:54.419Z,511.00
2022-12-29T00:02:24.580Z,511.00
2022-12-29T00:02:54.681Z,514.00
2022-12-29T00:03:24.649Z,511.00
2022-12-29T00:03:54.677Z,510.00
2022-12-29T00:04:24.622Z,510.00
2022-12-29T00:04:54.732Z,506.00
2022-12-29T00:05:24.797Z,507.00
2022-12-29T00:05:54.885Z,507.00
2022-12-29T00:06:25.004Z,510.00
2022-12-29T00:06:54.964Z,507.00
2022-12-29T00:07:25.056Z,512.00
2022-12-29T00:07:55.148Z,512.00
2022-12-29T00:08:25.224Z,513.00
2022-12-29T00:08:55.305Z,511.00
2022-12-29T00:09:25.388Z,512.00
2022-12-29T00:09:55.475Z,511.00
2022-12-29T00:10:25.566Z,512.00
2022-12-29T00:10:55.663Z,516.00
2022-12-29T00:11:25.745Z,515.00
2022-12-29T00:11:55.821Z,515.00
2022-12-29T00:12:25.967Z,514.00
2022-12-29T00:12:55.910Z,518.00
2022-12-29T00:13:25.998Z,518.00
2022-12-29T00:13:56.077Z,517.00
2022-12-29T00:14:26.511Z,518.00
2022-12-29T00:14:56.233Z,515.00
2022-12-29T00:15:26.317Z,514.00
2022-12-29T00:15:56.437Z,515.00
2022-12-29T00:16:26.446Z,514.00
2022-12-29T00:16:56.524Z,514.00
2022-12-29T00:17:26.618Z,514.00
2022-12-29T00:17:56.692Z,517.00
2022-12-29T00:18:26.787Z,519.00
2022-12-29T00:18:56.868Z,517.00
2022-12-29T00:19:26.961Z,514.00
2022-12-29T00:19:57.055Z,514.00
2022-12-29T00:20:27.135Z,515.00
2022-12-29T00:20:57.314Z,518.00
2022-12-29T00:21:27.292Z,517.00
2022-12-29T00:21:57.378Z,519.00
2022-12-29T00:22:27.460Z,513.00
2022-12-29T00:22:57.540Z,516.00
2022-12-29T00:23:27.627Z,511.00
2022-12-29T00:23:57.712Z,511.00
2022-12-29T00:24:27.790Z,512.00
2022-12-29T00:24:57.884Z,514.00
2022-12-29T00:25:27.962Z,512.00
2022-12-29T00:25:58.046Z,514.00
2022-12-29T00:26:28.139Z,511.00
2022-12-29T00:26:58.246Z,512.00
2022-12-29T00:27:28.324Z,529.00
2022-12-29T00:28:04.767Z,517.00
2022-12-29T00:28:28.512Z,519.00
2022-12-29T00:28:58.456Z,517.00
2022-12-29T00:29:28.564Z,515.00
2022-12-29T00:29:58.616Z,509.00
2022-12-29T00:30:28.696Z,511.00
2022-12-29T00:30:58.833Z,510.00
2022-12-29T00:31:28.834Z,508.00
2022-12-29T00:31:58.803Z,509.00
2022-12-29T00:32:28.879Z,510.00
2022-12-29T00:32:58.977Z,509.00
2022-12-29T00:33:29.053Z,511.00
2022-12-29T00:33:59.151Z,514.00
2022-12-29T00:34:29.224Z,516.00
2022-12-29T00:34:59.300Z,513.00
2022-12-29T00:35:29.393Z,513.00
2022-12-29T00:35:59.462Z,513.00
2022-12-29T00:36:29.503Z,511.00
2022-12-29T00:36:59.547Z,512.00
2022-12-29T00:37:29.578Z,510.00
2022-12-29T00:37:59.631Z,510.00
2022-12-29T00:38:29.664Z,508.00
2022-12-29T00:38:59.712Z,510.00
2022-12-29T00:39:29.786Z,508.00
2022-12-29T00:39:59.819Z,509.00
2022-12-29T00:40:29.852Z,513.00
2022-12-29T00:40:59.897Z,509.00
2022-12-29T00:41:29.941Z,501.00
2022-12-29T00:41:59.981Z,503.00
2022-12-29T00:42:30.015Z,505.00
2022-12-29T00:43:00.054Z,508.00
2022-12-29T00:43:30.095Z,506.00
2022-12-29T00:44:00.140Z,508.00
2022-12-29T00:44:30.236Z,507.00
2022-12-29T00:45:00.228Z,509.00
2022-12-29T00:45:30.280Z,507.00
2022-12-29T00:46:00.327Z,509.00
2022-12-29T00:46:30.436Z,506.00
2022-12-29T00:47:00.506Z,511.00
2022-12-29T00:47:30.479Z,506.00
2022-12-29T00:48:00.557Z,509.00
2022-12-29T00:48:30.643Z,509.00
2022-12-29T00:49:00.730Z,507.00
2022-12-29T00:49:30.830Z,509.00
2022-12-29T00:50:00.907Z,508.00
2022-12-29T00:50:30.990Z,511.00
2022-12-29T00:51:01.076Z,513.00
2022-12-29T00:51:31.166Z,513.00
2022-12-29T00:52:01.263Z,514.00
2022-12-29T00:52:31.329Z,515.00
2022-12-29T00:53:01.415Z,515.00
2022-12-29T00:53:31.504Z,514.00
2022-12-29T00:54:01.589Z,514.00
2022-12-29T00:54:31.712Z,512.00
2022-12-29T00:55:01.788Z,513.00
2022-12-29T00:55:31.875Z,515.00
2022-12-29T00:56:02.000Z,513.00
2022-12-29T00:56:31.982Z,515.00
2022-12-29T00:57:02.059Z,514.00
2022-12-29T00:57:32.135Z,515.00
2022-12-29T00:58:02.257Z,515.00
2022-12-29T00:58:32.345Z,516.00
2022-12-29T00:59:02.456Z,516.00
2022-12-29T00:59:32.438Z,517.00
2022-12-29T01:00:02.556Z,515.00
2022-12-29T01:00:32.657Z,516.00
2022-12-29T01:01:02.723Z,516.00
2022-12-29T01:01:32.928Z,515.00
2022-12-29T01:02:02.899Z,514.00
2022-12-29T01:02:33.110Z,515.00
2022-12-29T01:03:03.064Z,517.00
2022-12-29T01:03:33.019Z,518.00
2022-12-29T01:04:04.575Z,516.00
2022-12-29T01:04:33.217Z,516.00
2022-12-29T01:05:03.308Z,516.00
2022-12-29T01:05:33.412Z,515.00
2022-12-29T01:06:03.507Z,517.00
2022-12-29T01:06:33.583Z,520.00
2022-12-29T01:07:03.675Z,518.00
2022-12-29T01:07:33.754Z,520.00
2022-12-29T01:08:03.844Z,519.00
2022-12-29T01:08:33.913Z,519.00
2022-12-29T01:09:03.985Z,519.00
2022-12-29T01:09:34.168Z,519.00
2022-12-29T01:10:04.138Z,519.00
2022-12-29T01:10:34.225Z,519.00
2022-12-29T01:11:04.332Z,521.00
2022-12-29T01:11:34.286Z,513.00
2022-12-29T01:12:04.368Z,508.00
2022-12-29T01:12:34.454Z,508.00
2022-12-29T01:13:04.531Z,510.00
2022-12-29T01:13:34.641Z,512.00
2022-12-29T01:14:04.714Z,512.00
2022-12-29T01:14:34.886Z,515.00
2022-12-29T01:15:04.858Z,508.00
2022-12-29T01:15:34.921Z,512.00
2022-12-29T01:16:05.103Z,512.00
2022-12-29T01:16:35.163Z,510.00
2022-12-29T01:17:05.172Z,519.00
2022-12-29T01:17:35.247Z,518.00
2022-12-29T01:18:05.336Z,521.00
2022-12-29T01:18:35.425Z,519.00
2022-12-29T01:19:05.515Z,513.00
2022-12-29T01:19:35.599Z,517.00
2022-12-29T01:20:05.707Z,515.00
2022-12-29T01:20:35.787Z,513.00
2022-12-29T01:21:05.765Z,512.00
2022-12-29T01:21:35.841Z,513.00
2022-12-29T01:22:05.929Z,515.00
2022-12-29T01:22:36.050Z,514.00
2022-12-29T01:23:06.023Z,516.00
2022-12-29T01:23:36.116Z,513.00
2022-12-29T01:24:06.187Z,514.00
2022-12-29T01:24:36.254Z,511.00
2022-12-29T01:25:06.361Z,508.00
2022-12-29T01:25:36.368Z,507.00
2022-12-29T01:26:06.451Z,508.00
2022-12-29T01:26:36.467Z,508.00
2022-12-29T01:27:06.553Z,511.00
2022-12-29T01:27:36.647Z,512.00
2022-12-29T01:28:06.739Z,512.00
2022-12-29T01:28:36.910Z,513.00
2022-12-29T01:29:06.855Z,517.00
2022-12-29T01:29:36.915Z,514.00
2022-12-29T01:30:07.294Z,518.00
2022-12-29T01:30:37.058Z,520.00
2022-12-29T01:31:07.294Z,512.00
2022-12-29T01:31:37.200Z,521.00
2022-12-29T01:32:07.235Z,517.00
2022-12-29T01:32:37.248Z,514.00
2022-12-29T01:33:07.436Z,513.00
2022-12-29T01:33:37.379Z,510.00
2022-12-29T01:34:07.474Z,513.00
2022-12-29T01:34:37.581Z,512.00
2022-12-29T01:35:07.659Z,515.00
2022-12-29T01:35:37.740Z,514.00
2022-12-29T01:36:07.830Z,512.00
2022-12-29T01:36:37.855Z,513.00
2022-12-29T01:37:07.907Z,512.00
2022-12-29T01:37:37.950Z,509.00
2022-12-29T01:38:08.006Z,508.00
2022-12-29T01:38:38.033Z,515.00
2022-12-29T01:39:08.077Z,512.00
2022-12-29T01:39:38.109Z,516.00
2022-12-29T01:40:08.172Z,519.00
2022-12-29T01:40:38.184Z,517.00
2022-12-29T01:41:08.231Z,513.00
2022-12-29T01:41:38.270Z,511.00
2022-12-29T01:42:08.315Z,512.00
2022-12-29T01:42:38.358Z,511.00
2022-12-29T01:43:08.393Z,513.00
2022-12-29T01:43:38.436Z,510.00
2022-12-29T01:44:08.470Z,512.00
2022-12-29T01:44:38.530Z,513.00
2022-12-29T01:45:08.560Z,514.00
2022-12-29T01:45:38.656Z,511.00
2022-12-29T01:46:08.871Z,512.00
2022-12-29T01:46:38.653Z,513.00
2022-12-29T01:47:08.729Z,513.00
2022-12-29T01:47:38.824Z,512.00
2022-12-29T01:48:08.927Z,512.00
2022-12-29T01:48:39.006Z,510.00
2022-12-29T01:49:09.085Z,511.00
2022-12-29T01:49:39.184Z,511.00
2022-12-29T01:50:09.270Z,509.00
2022-12-29T01:50:39.343Z,513.00
2022-12-29T01:51:09.443Z,513.00
2022-12-29T01:51:39.546Z,511.00
2022-12-29T01:52:09.633Z,511.00
2022-12-29T01:52:39.725Z,509.00
2022-12-29T01:53:09.798Z,513.00
2022-12-29T01:53:39.879Z,516.00
2022-12-29T01:54:09.958Z,514.00
2022-12-29T01:54:40.069Z,515.00
2022-12-29T01:55:10.145Z,516.00
2022-12-29T01:55:40.232Z,514.00
2022-12-29T01:56:10.324Z,515.00
2022-12-29T01:56:40.410Z,516.00
2022-12-29T01:57:10.491Z,514.00
2022-12-29T01:57:40.575Z,512.00
2022-12-29T01:58:10.657Z,508.00
2022-12-29T01:58:40.771Z,509.00
2022-12-29T01:59:10.827Z,512.00
2022-12-29T01:59:40.916Z,513.00
2022-12-29T02:00:10.996Z,516.00
2022-12-29T02:00:41.196Z,512.00
2022-12-29T02:01:11.321Z,509.00
2022-12-29T02:01:41.334Z,513.00
2022-12-29T02:02:11.419Z,515.00
2022-12-29T02:02:41.570Z,513.00
2022-12-29T02:03:11.435Z,513.00
2022-12-29T02:03:41.585Z,525.00
2022-12-29T02:04:11.436Z,518.00
2022-12-29T02:04:41.520Z,513.00
2022-12-29T02:05:11.599Z,510.00
2022-12-29T02:05:41.690Z,510.00
2022-12-29T02:06:11.786Z,511.00
2022-12-29T02:06:41.889Z,487.00
2022-12-29T02:07:11.976Z,510.00
2022-12-29T02:07:42.068Z,513.00
2022-12-29T02:08:12.164Z,510.00
2022-12-29T02:08:42.256Z,510.00
2022-12-29T02:09:12.336Z,515.00
2022-12-29T02:09:42.411Z,513.00
2022-12-29T02:10:12.489Z,512.00
2022-12-29T02:10:42.601Z,522.00
2022-12-29T02:11:12.672Z,524.00
2022-12-29T02:11:42.759Z,521.00
2022-12-29T02:12:12.830Z,518.00
2022-12-29T02:12:42.909Z,511.00
2022-12-29T02:13:12.996Z,513.00
2022-12-29T02:13:43.089Z,511.00
2022-12-29T02:14:13.175Z,511.00
2022-12-29T02:14:43.251Z,509.00
2022-12-29T02:15:13.377Z,505.00
2022-12-29T02:15:43.417Z,509.00
2022-12-29T02:16:13.558Z,508.00
2022-12-29T02:16:43.564Z,508.00
2022-12-29T02:17:13.595Z,508.00
2022-12-29T02:17:43.669Z,511.00
2022-12-29T02:18:13.757Z,507.00
2022-12-29T02:18:43.781Z,505.00
2022-12-29T02:19:13.863Z,506.00
2022-12-29T02:19:43.858Z,506.00
2022-12-29T02:20:13.956Z,503.00
2022-12-29T02:20:44.173Z,506.00
2022-12-29T02:21:14.134Z,504.00
2022-12-29T02:21:44.222Z,508.00
2022-12-29T02:22:14.308Z,507.00
2022-12-29T02:22:44.403Z,509.00
2022-12-29T02:23:14.484Z,509.00
2022-12-29T02:23:44.563Z,511.00
2022-12-29T02:24:14.654Z,514.00
2022-12-29T02:24:44.744Z,514.00
2022-12-29T02:25:14.836Z,514.00
2022-12-29T02:25:44.942Z,509.00
2022-12-29T02:26:15.032Z,515.00
2022-12-29T02:26:45.125Z,511.00
2022-12-29T02:27:15.197Z,511.00
2022-12-29T02:27:45.283Z,514.00
2022-12-29T02:28:15.376Z,520.00
2022-12-29T02:28:45.445Z,516.00
2022-12-29T02:29:15.542Z,514.00
2022-12-29T02:29:45.628Z,515.00
2022-12-29T02:30:15.705Z,510.00
2022-12-29T02:30:45.801Z,514.00
2022-12-29T02:31:15.982Z,512.00
2022-12-29T02:31:46.023Z,515.00
2022-12-29T02:32:16.001Z,514.00
2022-12-29T02:32:46.092Z,516.00
2022-12-29T02:33:16.172Z,515.00
2022-12-29T02:33:46.258Z,517.00
2022-12-29T02:34:16.331Z,517.00
2022-12-29T02:34:46.430Z,514.00
2022-12-29T02:35:16.511Z,517.00
2022-12-29T02:35:46.597Z,511.00
2022-12-29T02:36:16.631Z,517.00
2022-12-29T02:36:46.769Z,522.00
2022-12-29T02:37:16.779Z,518.00
2022-12-29T02:37:46.836Z,521.00
2022-12-29T02:38:16.877Z,523.00
2022-12-29T02:38:46.870Z,518.00
2022-12-29T02:39:16.900Z,517.00
2022-12-29T02:39:46.924Z,521.00
2022-12-29T02:40:16.931Z,520.00
2022-12-29T02:40:46.953Z,517.00
2022-12-29T02:41:16.978Z,519.00
2022-12-29T02:41:47.043Z,520.00
2022-12-29T02:42:17.073Z,521.00
2022-12-29T02:42:47.111Z,520.00
2022-12-29T02:43:17.163Z,522.00
2022-12-29T02:43:47.187Z,521.00
2022-12-29T02:44:17.256Z,521.00
2022-12-29T02:44:47.268Z,519.00
2022-12-29T02:45:17.322Z,518.00
2022-12-29T02:45:47.356Z,519.00
2022-12-29T02:46:17.394Z,510.00
2022-12-29T02:46:47.419Z,509.00
2022-12-29T02:47:17.486Z,512.00
2022-12-29T02:47:47.542Z,513.00
2022-12-29T02:48:17.637Z,508.00
2022-12-29T02:48:47.711Z,514.00
2022-12-29T02:49:17.779Z,510.00
2022-12-29T02:49:47.818Z,507.00
2022-12-29T02:50:17.891Z,500.00
2022-12-29T02:50:47.994Z,513.00
2022-12-29T02:51:18.083Z,508.00
2022-12-29T02:51:48.164Z,510.00
2022-12-29T02:52:18.248Z,512.00
2022-12-29T02:52:48.264Z,510.00
2022-12-29T02:53:18.353Z,513.00
2022-12-29T02:53:48.430Z,510.00
2022-12-29T02:54:18.512Z,512.00
2022-12-29T02:54:48.595Z,512.00
2022-12-29T02:55:18.699Z,511.00
2022-12-29T02:55:48.804Z,512.00
2022-12-29T02:56:18.893Z,513.00
2022-12-29T02:56:48.973Z,512.00
2022-12-29T02:57:19.054Z,514.00
2022-12-29T02:57:49.132Z,511.00
2022-12-29T02:58:19.226Z,501.00
2022-12-29T02:58:49.315Z,505.00
2022-12-29T02:59:19.381Z,507.00
2022-12-29T02:59:49.468Z,509.00
2022-12-29T03:00:19.541Z,508.00
2022-12-29T03:00:49.640Z,509.00
2022-12-29T03:01:19.792Z,508.00
2022-12-29T03:01:49.843Z,508.00
2022-12-29T03:02:19.900Z,509.00
2022-12-29T03:02:50.029Z,509.00
2022-12-29T03:03:19.990Z,510.00
2022-12-29T03:03:49.882Z,506.00
2022-12-29T03:04:19.939Z,509.00
2022-12-29T03:04:50.041Z,512.00
2022-12-29T03:05:20.120Z,509.00
2022-12-29T03:05:50.230Z,507.00
2022-12-29T03:06:20.204Z,508.00
2022-12-29T03:06:50.305Z,503.00
2022-12-29T03:07:20.373Z,508.00
2022-12-29T03:07:50.452Z,509.00
2022-12-29T03:08:20.541Z,505.00
2022-12-29T03:08:50.634Z,507.00
2022-12-29T03:09:20.728Z,509.00
2022-12-29T03:09:50.729Z,507.00
2022-12-29T03:10:20.807Z,511.00
2022-12-29T03:10:50.891Z,514.00
2022-12-29T03:11:20.993Z,515.00
2022-12-29T03:11:51.081Z,514.00
2022-12-29T03:12:21.174Z,513.00
2022-12-29T03:12:51.261Z,514.00
2022-12-29T03:13:21.337Z,515.00
2022-12-29T03:13:51.414Z,515.00
2022-12-29T03:14:21.495Z,514.00
2022-12-29T03:14:51.582Z,515.00
2022-12-29T03:15:21.666Z,512.00
2022-12-29T03:15:51.741Z,514.00
2022-12-29T03:16:21.909Z,511.00
2022-12-29T03:16:51.988Z,512.00
2022-12-29T03:17:21.929Z,511.00
2022-12-29T03:17:51.982Z,512.00
2022-12-29T03:18:22.079Z,510.00
2022-12-29T03:18:52.157Z,510.00
2022-12-29T03:19:22.245Z,511.00
2022-12-29T03:19:52.330Z,508.00
2022-12-29T03:20:22.411Z,511.00
2022-12-29T03:20:52.493Z,507.00
2022-12-29T03:21:22.596Z,510.00
2022-12-29T03:21:52.675Z,509.00
2022-12-29T03:22:22.787Z,509.00
2022-12-29T03:22:52.865Z,512.00
2022-12-29T03:23:22.935Z,509.00
2022-12-29T03:23:53.023Z,512.00
2022-12-29T03:24:23.105Z,510.00
2022-12-29T03:24:53.203Z,510.00
2022-12-29T03:25:23.286Z,511.00
2022-12-29T03:25:53.370Z,513.00
2022-12-29T03:26:23.452Z,513.00
2022-12-29T03:26:53.539Z,508.00
2022-12-29T03:27:23.630Z,511.00
2022-12-29T03:27:53.719Z,510.00
2022-12-29T03:28:23.805Z,507.00
2022-12-29T03:28:53.877Z,510.00
2022-12-29T03:29:23.969Z,506.00
2022-12-29T03:29:54.055Z,503.00
2022-12-29T03:30:24.138Z,503.00
2022-12-29T03:30:54.249Z,500.00
2022-12-29T03:31:24.300Z,505.00
2022-12-29T03:31:54.281Z,505.00
2022-12-29T03:32:24.400Z,502.00
2022-12-29T03:32:54.460Z,502.00
2022-12-29T03:33:24.545Z,502.00
2022-12-29T03:33:54.633Z,505.00
2022-12-29T03:34:24.719Z,503.00
2022-12-29T03:34:54.815Z,502.00
2022-12-29T03:35:24.903Z,504.00
2022-12-29T03:35:54.957Z,510.00
2022-12-29T03:36:25.019Z,506.00
2022-12-29T03:36:55.054Z,510.00
2022-12-29T03:37:25.110Z,506.00
2022-12-29T03:37:55.155Z,507.00
2022-12-29T03:38:25.191Z,501.00
2022-12-29T03:38:55.235Z,506.00
2022-12-29T03:39:25.281Z,505.00
2022-12-29T03:39:55.318Z,505.00
2022-12-29T03:40:25.356Z,510.00
2022-12-29T03:40:55.397Z,507.00
2022-12-29T03:41:25.438Z,514.00
2022-12-29T03:41:55.489Z,510.00
2022-12-29T03:42:25.532Z,512.00
2022-12-29T03:42:55.578Z,512.00
2022-12-29T03:43:25.603Z,510.00
2022-12-29T03:43:55.655Z,510.00
2022-12-29T03:44:25.703Z,511.00
2022-12-29T03:44:55.747Z,512.00
2022-12-29T03:45:25.799Z,515.00
2022-12-29T03:45:55.911Z,514.00
2022-12-29T03:46:26.084Z,515.00
2022-12-29T03:46:55.966Z,514.00
2022-12-29T03:47:26.083Z,514.00
2022-12-29T03:47:56.167Z,515.00
2022-12-29T03:48:26.228Z,518.00
2022-12-29T03:48:56.237Z,508.00
2022-12-29T03:49:26.317Z,511.00
2022-12-29T03:49:56.399Z,513.00
2022-12-29T03:50:26.476Z,517.00
2022-12-29T03:50:56.569Z,509.00
2022-12-29T03:51:26.670Z,505.00
2022-12-29T03:51:56.766Z,510.00
2022-12-29T03:52:26.841Z,509.00
2022-12-29T03:52:56.927Z,512.00
2022-12-29T03:53:27.016Z,511.00
2022-12-29T03:53:57.107Z,511.00
2022-12-29T03:54:27.191Z,510.00
2022-12-29T03:54:57.269Z,510.00
2022-12-29T03:55:27.367Z,512.00
2022-12-29T03:55:57.446Z,510.00
2022-12-29T03:56:27.555Z,519.00
2022-12-29T03:56:57.637Z,512.00
2022-12-29T03:57:27.718Z,512.00
2022-12-29T03:57:57.805Z,514.00
2022-12-29T03:58:27.894Z,517.00
2022-12-29T03:58:57.999Z,514.00
2022-12-29T03:59:28.080Z,511.00
2022-12-29T03:59:58.162Z,514.00
2022-12-29T04:00:28.253Z,511.00
2022-12-29T04:00:58.342Z,510.00
2022-12-29T04:01:28.548Z,511.00
2022-12-29T04:01:58.736Z,503.00
2022-12-29T04:02:28.848Z,511.00
2022-12-29T04:02:58.807Z,512.00
2022-12-29T04:03:28.661Z,507.00
2022-12-29T04:03:58.746Z,507.00
2022-12-29T04:04:28.825Z,507.00
2022-12-29T04:04:58.898Z,505.00
2022-12-29T04:05:28.992Z,509.00
2022-12-29T04:05:59.074Z,506.00
2022-12-29T04:06:29.175Z,506.00
2022-12-29T04:06:59.256Z,506.00
2022-12-29T04:07:29.346Z,504.00
2022-12-29T04:07:59.451Z,502.00
2022-12-29T04:08:29.524Z,504.00
2022-12-29T04:08:59.596Z,505.00
2022-12-29T04:09:29.671Z,503.00
2022-12-29T04:09:59.769Z,501.00
2022-12-29T04:10:29.869Z,501.00
2022-12-29T04:10:59.982Z,502.00
2022-12-29T04:11:33.281Z,504.00
2022-12-29T04:12:00.164Z,523.00
2022-12-29T04:12:30.270Z,495.00
2022-12-29T04:13:00.359Z,502.00
2022-12-29T04:13:30.441Z,498.00
2022-12-29T04:14:00.532Z,501.00
2022-12-29T04:14:30.612Z,506.00
2022-12-29T04:15:00.702Z,508.00
2022-12-29T04:15:30.826Z,506.00
2022-12-29T04:16:00.981Z,506.00
2022-12-29T04:16:30.967Z,506.00
2022-12-29T04:17:01.040Z,505.00
2022-12-29T04:17:31.132Z,507.00
2022-12-29T04:18:01.247Z,507.00
2022-12-29T04:18:31.304Z,502.00
2022-12-29T04:19:01.383Z,500.00
2022-12-29T04:19:31.485Z,500.00
2022-12-29T04:20:01.558Z,506.00
2022-12-29T04:20:31.638Z,517.00
2022-12-29T04:21:01.738Z,508.00
2022-12-29T04:21:31.802Z,508.00
2022-12-29T04:22:01.904Z,506.00
2022-12-29T04:22:31.982Z,509.00
2022-12-29T04:23:02.064Z,508.00
2022-12-29T04:23:32.148Z,512.00
2022-12-29T04:24:02.254Z,511.00
2022-12-29T04:24:32.326Z,504.00
2022-12-29T04:25:02.410Z,506.00
2022-12-29T04:25:32.506Z,509.00
2022-12-29T04:26:02.580Z,511.00
2022-12-29T04:26:32.659Z,510.00
2022-12-29T04:27:02.760Z,510.00
2022-12-29T04:27:32.834Z,510.00
2022-12-29T04:28:02.926Z,508.00
2022-12-29T04:28:33.006Z,506.00
2022-12-29T04:29:03.054Z,504.00
2022-12-29T04:29:33.112Z,504.00
2022-12-29T04:30:03.178Z,508.00
2022-12-29T04:30:33.243Z,509.00
2022-12-29T04:31:03.376Z,507.00
2022-12-29T04:31:33.404Z,502.00
2022-12-29T04:32:03.452Z,499.00
2022-12-29T04:32:33.528Z,501.00
2022-12-29T04:33:03.632Z,500.00
2022-12-29T04:33:33.743Z,500.00
2022-12-29T04:34:03.752Z,502.00
2022-12-29T04:34:33.859Z,499.00
2022-12-29T04:35:03.908Z,500.00
2022-12-29T04:35:33.998Z,506.00
2022-12-29T04:36:04.057Z,506.00
2022-12-29T04:36:34.109Z,505.00
2022-12-29T04:37:04.190Z,507.00
2022-12-29T04:37:34.213Z,507.00
2022-12-29T04:38:04.260Z,513.00
2022-12-29T04:38:34.304Z,509.00
2022-12-29T04:39:04.339Z,510.00
2022-12-29T04:39:34.381Z,512.00
2022-12-29T04:40:04.413Z,506.00
2022-12-29T04:40:34.465Z,505.00
2022-12-29T04:41:04.514Z,505.00
2022-12-29T04:41:34.577Z,504.00
2022-12-29T04:42:04.596Z,501.00
2022-12-29T04:42:34.641Z,501.00
2022-12-29T04:43:04.672Z,501.00
2022-12-29T04:43:34.724Z,500.00
2022-12-29T04:44:04.758Z,499.00
2022-12-29T04:44:37.567Z,497.00
2022-12-29T04:45:04.838Z,499.00
2022-12-29T04:45:34.890Z,501.00
2022-12-29T04:46:05.009Z,504.00
2022-12-29T04:46:35.054Z,500.00
2022-12-29T04:47:05.111Z,502.00
2022-12-29T04:47:35.203Z,501.00
2022-12-29T04:48:05.293Z,501.00
2022-12-29T04:48:35.420Z,504.00
2022-12-29T04:49:05.428Z,503.00
2022-12-29T04:49:35.484Z,506.00
2022-12-29T04:50:05.570Z,503.00
2022-12-29T04:50:35.673Z,506.00
2022-12-29T04:51:05.773Z,507.00
2022-12-29T04:51:35.859Z,504.00
2022-12-29T04:52:05.950Z,508.00
2022-12-29T04:52:36.032Z,508.00
2022-12-29T04:53:06.125Z,507.00
2022-12-29T04:53:36.208Z,509.00
2022-12-29T04:54:06.284Z,507.00
2022-12-29T04:54:36.365Z,514.00
2022-12-29T04:55:06.459Z,502.00
2022-12-29T04:55:36.501Z,503.00
2022-12-29T04:56:06.578Z,504.00
2022-12-29T04:56:36.664Z,510.00
2022-12-29T04:57:06.762Z,508.00
2022-12-29T04:57:36.853Z,509.00
2022-12-29T04:58:06.938Z,509.00
2022-12-29T04:58:37.004Z,510.00
2022-12-29T04:59:07.084Z,503.00
2022-12-29T04:59:37.119Z,520.00
2022-12-29T05:00:07.215Z,513.00
2022-12-29T05:00:37.308Z,512.00
2022-12-29T05:01:07.384Z,509.00
2022-12-29T05:01:37.647Z,508.00
2022-12-29T05:02:07.763Z,511.00
2022-12-29T05:02:37.861Z,510.00
2022-12-29T05:03:07.858Z,508.00
2022-12-29T05:03:37.747Z,508.00
2022-12-29T05:04:07.790Z,505.00
2022-12-29T05:04:37.853Z,513.00
2022-12-29T05:05:07.954Z,509.00
2022-12-29T05:05:38.029Z,510.00
2022-12-29T05:06:08.108Z,508.00
2022-12-29T05:06:38.184Z,506.00
2022-12-29T05:07:08.274Z,508.00
2022-12-29T05:07:38.369Z,512.00
2022-12-29T05:08:08.454Z,506.00
2022-12-29T05:08:38.528Z,508.00
2022-12-29T05:09:08.620Z,511.00
2022-12-29T05:09:38.706Z,511.00
2022-12-29T05:10:08.808Z,515.00
2022-12-29T05:10:38.872Z,515.00
2022-12-29T05:11:08.958Z,514.00
2022-12-29T05:11:39.043Z,511.00
2022-12-29T05:12:09.150Z,512.00
2022-12-29T05:12:39.239Z,507.00
2022-12-29T05:13:09.301Z,503.00
2022-12-29T05:13:39.379Z,503.00
2022-12-29T05:14:09.463Z,506.00
2022-12-29T05:14:39.552Z,506.00
2022-12-29T05:15:09.651Z,508.00
2022-12-29T05:15:39.763Z,508.00
2022-12-29T05:16:09.767Z,503.00
2022-12-29T05:16:39.901Z,502.00
2022-12-29T05:17:09.924Z,500.00
2022-12-29T05:17:40.013Z,503.00
2022-12-29T05:18:10.104Z,501.00
2022-12-29T05:18:40.183Z,505.00
2022-12-29T05:19:10.271Z,506.00
2022-12-29T05:19:40.383Z,505.00
2022-12-29T05:20:10.437Z,503.00
2022-12-29T05:20:40.518Z,504.00
2022-12-29T05:21:10.612Z,504.00
2022-12-29T05:21:40.700Z,502.00
2022-12-29T05:22:10.788Z,503.00
2022-12-29T05:22:40.859Z,508.00
2022-12-29T05:23:10.945Z,506.00
2022-12-29T05:23:41.042Z,506.00
2022-12-29T05:24:11.135Z,507.00
2022-12-29T05:24:41.213Z,504.00
2022-12-29T05:25:11.292Z,504.00
2022-12-29T05:25:41.396Z,517.00
2022-12-29T05:26:11.490Z,516.00
2022-12-29T05:26:41.458Z,502.00
2022-12-29T05:27:11.565Z,504.00
2022-12-29T05:27:41.629Z,506.00
2022-12-29T05:28:11.714Z,506.00
2022-12-29T05:28:41.804Z,506.00
2022-12-29T05:29:11.897Z,504.00
2022-12-29T05:29:41.964Z,501.00
2022-12-29T05:30:12.056Z,505.00
2022-12-29T05:30:42.150Z,503.00
2022-12-29T05:31:12.315Z,504.00
2022-12-29T05:31:42.360Z,505.00
2022-12-29T05:32:12.350Z,503.00
2022-12-29T05:32:42.455Z,503.00
2022-12-29T05:33:12.694Z,502.00
2022-12-29T05:33:42.577Z,501.00
2022-12-29T05:34:12.667Z,501.00
2022-12-29T05:34:42.749Z,500.00
2022-12-29T05:35:12.878Z,501.00
2022-12-29T05:35:42.945Z,502.00
2022-12-29T05:36:13.046Z,499.00
2022-12-29T05:36:43.070Z,507.00
2022-12-29T05:37:13.138Z,507.00
2022-12-29T05:37:43.193Z,508.00
2022-12-29T05:38:13.237Z,503.00
2022-12-29T05:38:43.264Z,504.00
2022-12-29T05:39:13.303Z,504.00
2022-12-29T05:39:43.352Z,506.00
2022-12-29T05:40:13.398Z,503.00
2022-12-29T05:40:43.497Z,503.00
2022-12-29T05:41:13.518Z,506.00
2022-12-29T05:41:43.624Z,505.00
2022-12-29T05:42:13.666Z,505.00
2022-12-29T05:42:43.689Z,509.00
2022-12-29T05:43:13.726Z,511.00
2022-12-29T05:43:43.758Z,514.00
2022-12-29T05:44:13.806Z,511.00
2022-12-29T05:44:43.861Z,511.00
2022-12-29T05:45:13.901Z,510.00
2022-12-29T05:45:43.919Z,509.00
2022-12-29T05:46:14.153Z,508.00
2022-12-29T05:46:44.110Z,506.00
2022-12-29T05:47:14.285Z,506.00
2022-12-29T05:47:44.103Z,506.00
2022-12-29T05:48:14.189Z,507.00
2022-12-29T05:48:44.260Z,508.00
2022-12-29T05:49:14.352Z,505.00
2022-12-29T05:49:44.404Z,507.00
2022-12-29T05:50:14.477Z,509.00
2022-12-29T05:50:44.582Z,510.00
2022-12-29T05:51:14.662Z,508.00
2022-12-29T05:51:44.752Z,506.00
2022-12-29T05:52:14.850Z,511.00
2022-12-29T05:52:44.927Z,511.00
2022-12-29T05:53:15.008Z,505.00
2022-12-29T05:53:45.099Z,506.00
2022-12-29T05:54:15.184Z,508.00
2022-12-29T05:54:45.261Z,506.00
2022-12-29T05:55:15.340Z,505.00
2022-12-29T05:55:48.643Z,506.00
2022-12-29T05:56:15.507Z,506.00
2022-12-29T05:56:45.453Z,505.00
2022-12-29T05:57:15.558Z,509.00
2022-12-29T05:57:45.623Z,507.00
2022-12-29T05:58:15.713Z,511.00
2022-12-29T05:58:45.769Z,508.00
2022-12-29T05:59:15.861Z,509.00
2022-12-29T05:59:45.938Z,510.00
2022-12-29T06:00:16.029Z,509.00
2022-12-29T06:00:46.103Z,508.00
2022-12-29T06:01:16.210Z,510.00
2022-12-29T06:01:46.472Z,507.00
2022-12-29T06:02:16.432Z,506.00
2022-12-29T06:02:46.587Z,507.00
2022-12-29T06:03:16.444Z,506.00
2022-12-29T06:03:48.614Z,515.00
2022-12-29T06:04:16.450Z,507.00
2022-12-29T06:04:46.459Z,503.00
2022-12-29T06:05:16.552Z,509.00
2022-12-29T06:05:46.584Z,509.00
2022-12-29T06:06:16.694Z,507.00
2022-12-29T06:06:46.767Z,507.00
2022-12-29T06:07:16.863Z,510.00
2022-12-29T06:07:46.969Z,507.00
2022-12-29T06:08:17.064Z,508.00
2022-12-29T06:08:47.153Z,508.00
2022-12-29T06:09:17.228Z,510.00
2022-12-29T06:09:47.291Z,511.00
2022-12-29T06:10:17.373Z,512.00
2022-12-29T06:10:47.514Z,511.00
2022-12-29T06:11:17.579Z,508.00
2022-12-29T06:11:47.666Z,508.00
2022-12-29T06:12:17.753Z,509.00
2022-12-29T06:12:47.840Z,509.00
2022-12-29T06:13:17.924Z,510.00
2022-12-29T06:13:48.010Z,509.00
2022-12-29T06:14:18.093Z,506.00
2022-12-29T06:14:48.182Z,503.00
2022-12-29T06:15:18.264Z,504.00